createdAt,value
2017-06-10T00:01:57.608Z,12.70
2017-06-10T00:04:23.783Z,12.60
2017-06-10T00:06:49.992Z,12.50
2017-06-10T00:09:16.265Z,12.20
2017-06-10T00:11:42.462Z,12.00
2017-06-10T00:14:08.645Z,12.10
2017-06-10T00:16:34.885Z,12.10
2017-06-10T00:19:01.068Z,12.20
2017-06-10T00:21:27.271Z,12.30
2017-06-10T00:23:54.484Z,11.90
2017-06-10T00:26:20.661Z,11.90
2017-06-10T00:28:46.840Z,11.90
2017-06-10T00:31:13.051Z,12.00
2017-06-10T00:33:39.223Z,12.10
2017-06-10T00:36:06.217Z,12.10
2017-06-10T00:38:32.447Z,12.10
2017-06-10T00:40:58.605Z,12.00
2017-06-10T00:43:24.773Z,11.80
2017-06-10T00:45:50.975Z,11.80
2017-06-10T00:48:17.925Z,11.80
2017-06-10T00:50:44.845Z,11.90
2017-06-10T00:53:11.052Z,11.90
2017-06-10T00:55:37.228Z,11.90
2017-06-10T00:58:04.188Z,11.90
2017-06-10T01:00:30.389Z,11.90
2017-06-10T01:02:57.307Z,11.80
2017-06-10T01:05:23.498Z,11.80
2017-06-10T01:07:49.716Z,11.70
2017-06-10T01:10:15.903Z,11.70
2017-06-10T01:12:42.152Z,11.70
2017-06-10T01:15:09.135Z,11.70
2017-06-10T01:17:35.337Z,11.70
2017-06-10T01:20:01.524Z,11.70
2017-06-10T01:22:27.813Z,11.70
2017-06-10T01:24:53.992Z,11.80
2017-06-10T01:27:20.195Z,11.80
2017-06-10T01:29:46.408Z,11.80
2017-06-10T01:32:12.610Z,11.70
2017-06-10T01:34:38.804Z,11.70
2017-06-10T01:37:05.755Z,11.60
2017-06-10T01:39:32.736Z,11.60
2017-06-10T01:41:58.946Z,11.50
2017-06-10T01:44:25.164Z,11.50
2017-06-10T01:46:52.116Z,11.50
2017-06-10T01:49:18.297Z,11.50
2017-06-10T01:51:44.496Z,11.40
2017-06-10T01:54:10.720Z,11.40
2017-06-10T01:56:36.909Z,11.40
2017-06-10T01:59:03.107Z,11.30
2017-06-10T02:01:29.308Z,11.20
2017-06-10T02:03:55.499Z,11.10
2017-06-10T02:06:22.437Z,11.20
2017-06-10T02:08:49.379Z,11.30
2017-06-10T02:11:16.292Z,11.20
2017-06-10T02:13:42.463Z,11.20
2017-06-10T02:16:08.714Z,11.20
2017-06-10T02:18:34.909Z,11.10
2017-06-10T02:21:01.079Z,11.00
2017-06-10T02:23:27.300Z,11.00
2017-06-10T02:25:53.509Z,10.90
2017-06-10T02:28:19.685Z,10.90
2017-06-10T02:30:45.871Z,10.80
2017-06-10T02:33:12.060Z,10.60
2017-06-10T02:35:39.040Z,10.40
2017-06-10T02:38:05.262Z,10.40
2017-06-10T02:40:31.460Z,10.40
2017-06-10T02:42:58.376Z,10.60
2017-06-10T02:45:26.398Z,10.60
2017-06-10T02:47:52.600Z,10.60
2017-06-10T02:50:19.520Z,10.70
2017-06-10T02:52:45.732Z,10.70
2017-06-10T02:55:11.908Z,10.40
2017-06-10T02:57:38.084Z,10.30
2017-06-10T03:00:04.308Z,10.10
2017-06-10T03:02:30.528Z,10.00
2017-06-10T03:04:56.699Z,10.10
2017-06-10T03:07:22.904Z,10.10
2017-06-10T03:09:49.102Z,10.00
2017-06-10T03:12:15.357Z,10.00
2017-06-10T03:14:41.565Z,9.90
2017-06-10T03:17:07.744Z,10.00
2017-06-10T03:19:33.936Z,10.10
2017-06-10T03:22:00.216Z,10.00
2017-06-10T03:24:26.421Z,10.00
2017-06-10T03:26:53.341Z,10.10
2017-06-10T03:29:20.384Z,10.00
2017-06-10T03:31:46.615Z,10.00
2017-06-10T03:34:12.801Z,10.00
2017-06-10T03:36:39.015Z,10.00
2017-06-10T03:39:05.204Z,10.00
2017-06-10T03:41:31.371Z,9.90
2017-06-10T03:43:57.584Z,10.00
2017-06-10T03:46:23.802Z,9.90
2017-06-10T03:48:49.977Z,9.90
2017-06-10T03:51:16.181Z,9.90
2017-06-10T03:53:42.365Z,10.00
2017-06-10T03:56:08.548Z,10.00
2017-06-10T03:58:34.788Z,10.10
2017-06-10T04:01:01.023Z,10.10
2017-06-10T04:03:27.213Z,10.10
2017-06-10T04:05:53.404Z,10.10
2017-06-10T04:08:19.585Z,10.10
2017-06-10T04:10:45.769Z,10.10
2017-06-10T04:13:11.973Z,10.20
2017-06-10T04:15:38.160Z,10.30
2017-06-10T04:18:04.369Z,10.40
2017-06-10T04:20:30.560Z,10.40
2017-06-10T04:22:56.787Z,10.50
2017-06-10T04:25:22.984Z,10.60
2017-06-10T04:27:49.160Z,10.70
2017-06-10T04:30:16.115Z,10.90
2017-06-10T04:32:42.296Z,10.90
2017-06-10T04:35:08.484Z,10.90
2017-06-10T04:37:34.693Z,11.00
2017-06-10T04:40:01.608Z,11.10
2017-06-10T04:42:27.811Z,11.10
2017-06-10T04:44:54.008Z,11.20
2017-06-10T04:47:20.181Z,11.30
2017-06-10T04:49:46.459Z,11.40
2017-06-10T04:52:12.654Z,11.50
2017-06-10T04:54:38.824Z,11.60
2017-06-10T04:57:05.343Z,11.70
2017-06-10T04:59:31.531Z,11.80
2017-06-10T05:01:58.049Z,11.70
2017-06-10T05:04:24.340Z,11.80
2017-06-10T05:06:50.556Z,12.00
2017-06-10T05:09:16.805Z,12.20
2017-06-10T05:11:43.045Z,12.40
2017-06-10T05:14:09.301Z,12.70
2017-06-10T05:16:35.509Z,13.00
2017-06-10T05:19:01.706Z,13.30
2017-06-10T05:21:27.950Z,13.50
2017-06-10T05:23:54.139Z,13.10
2017-06-10T05:26:21.072Z,13.30
2017-06-10T05:28:47.280Z,13.30
2017-06-10T05:31:13.483Z,13.70
2017-06-10T05:33:39.682Z,14.00
2017-06-10T05:36:06.690Z,14.10
2017-06-10T05:38:32.888Z,14.00
2017-06-10T05:40:59.108Z,14.00
2017-06-10T05:43:25.327Z,14.00
2017-06-10T05:45:51.597Z,14.30
2017-06-10T05:48:17.889Z,14.40
2017-06-10T05:50:44.071Z,14.20
2017-06-10T05:53:10.274Z,14.10
2017-06-10T05:55:36.522Z,14.30
2017-06-10T05:58:02.756Z,14.60
2017-06-10T06:00:29.115Z,15.30
2017-06-10T06:02:55.530Z,15.50
2017-06-10T06:05:22.558Z,15.90
2017-06-10T06:07:48.808Z,15.90
2017-06-10T06:10:15.091Z,16.20
2017-06-10T06:12:41.355Z,16.50
2017-06-10T06:15:07.586Z,16.90
2017-06-10T06:17:33.834Z,17.10
2017-06-10T06:20:00.044Z,17.20
2017-06-10T06:22:27.028Z,17.20
2017-06-10T06:24:53.280Z,17.20
2017-06-10T06:27:19.497Z,17.40
2017-06-10T06:29:45.714Z,17.10
2017-06-10T06:32:11.999Z,17.50
2017-06-10T06:34:38.978Z,17.50
2017-06-10T06:37:05.197Z,17.50
2017-06-10T06:39:31.498Z,17.60
2017-06-10T06:41:58.425Z,18.30
2017-06-10T06:44:24.612Z,18.30
2017-06-10T06:46:50.848Z,18.80
2017-06-10T06:49:17.060Z,19.10
2017-06-10T06:51:43.254Z,19.50
2017-06-10T06:54:09.481Z,19.80
2017-06-10T06:56:35.665Z,20.00
2017-06-10T06:59:01.844Z,20.10
2017-06-10T07:01:28.102Z,20.40
2017-06-10T07:03:54.308Z,20.70
2017-06-10T07:06:20.501Z,21.00
2017-06-10T07:08:47.139Z,21.30
2017-06-10T07:11:14.084Z,21.10
2017-06-10T07:13:40.267Z,21.10
2017-06-10T07:16:06.496Z,21.40
2017-06-10T07:18:32.695Z,21.90
2017-06-10T07:20:58.916Z,22.50
2017-06-10T07:23:25.149Z,23.00
2017-06-10T07:25:51.344Z,23.00
2017-06-10T07:28:17.529Z,23.30
2017-06-10T07:30:43.731Z,24.10
2017-06-10T07:33:09.924Z,24.10
2017-06-10T07:35:36.160Z,24.30
2017-06-10T07:38:02.342Z,25.00
2017-06-10T07:40:28.556Z,25.30
2017-06-10T07:42:54.804Z,25.30
2017-06-10T07:45:20.985Z,26.00
2017-06-10T07:47:47.932Z,25.10
2017-06-10T07:50:14.961Z,24.30
2017-06-10T07:52:41.152Z,24.20
2017-06-10T07:55:07.345Z,23.50
2017-06-10T07:57:33.569Z,22.80
2017-06-10T07:59:59.812Z,22.20
2017-06-10T08:02:26.172Z,21.90
2017-06-10T08:04:52.402Z,21.60
2017-06-10T08:07:18.616Z,22.00
2017-06-10T08:09:44.820Z,23.10
2017-06-10T08:12:11.069Z,24.50
2017-06-10T08:14:37.256Z,25.50
2017-06-10T08:17:03.465Z,26.00
2017-06-10T08:19:30.473Z,26.90
